sensor_id;sensor_type;location;lat;lon;timestamp;temperature;humidity
25945;SHT31;13742;49.306;8.636;2023-11-19T00:00:05;8.85;95.62
25945;SHT31;13742;49.306;8.636;2023-11-19T00:01:02;8.85;95.58
25945;SHT31;13742;49.306;8.636;2023-11-19T00:02:02;8.88;95.40
25945;SHT31;13742;49.306;8.636;2023-11-19T00:03:02;8.88;95.82
25945;SHT31;13742;49.306;8.636;2023-11-19T00:04:04;8.89;95.64
25945;SHT31;13742;49.306;8.636;2023-11-19T00:05:02;8.89;95.43
25945;SHT31;13742;49.306;8.636;2023-11-19T00:06:03;8.89;95.36
25945;SHT31;13742;49.306;8.636;2023-11-19T00:07:04;8.88;95.24
25945;SHT31;13742;49.306;8.636;2023-11-19T00:08:02;8.91;95.17
25945;SHT31;13742;49.306;8.636;2023-11-19T00:09:04;8.88;95.09
25945;SHT31;13742;49.306;8.636;2023-11-19T00:10:11;8.89;95.23
25945;SHT31;13742;49.306;8.636;2023-11-19T00:11:03;8.92;95.52
25945;SHT31;13742;49.306;8.636;2023-11-19T00:12:02;8.88;95.23
25945;SHT31;13742;49.306;8.636;2023-11-19T00:13:02;8.93;95.44
25945;SHT31;13742;49.306;8.636;2023-11-19T00:14:02;8.91;95.33
25945;SHT31;13742;49.306;8.636;2023-11-19T00:15:02;8.92;95.48
25945;SHT31;13742;49.306;8.636;2023-11-19T00:16:05;8.93;95.50
25945;SHT31;13742;49.306;8.636;2023-11-19T00:17:02;8.92;95.46
25945;SHT31;13742;49.306;8.636;2023-11-19T00:18:04;8.92;95.36
25945;SHT31;13742;49.306;8.636;2023-11-19T00:19:04;8.93;95.75
25945;SHT31;13742;49.306;8.636;2023-11-19T00:20:06;8.98;95.95
25945;SHT31;13742;49.306;8.636;2023-11-19T00:21:02;8.96;95.78
25945;SHT31;13742;49.306;8.636;2023-11-19T00:22:02;8.96;95.71
25945;SHT31;13742;49.306;8.636;2023-11-19T00:23:02;8.98;95.94
25945;SHT31;13742;49.306;8.636;2023-11-19T00:24:02;8.99;95.93
25945;SHT31;13742;49.306;8.636;2023-11-19T00:25:02;8.95;95.87
25945;SHT31;13742;49.306;8.636;2023-11-19T00:26:02;8.98;96.09
25945;SHT31;13742;49.306;8.636;2023-11-19T00:27:02;8.99;95.97
25945;SHT31;13742;49.306;8.636;2023-11-19T00:28:02;8.99;96.10
25945;SHT31;13742;49.306;8.636;2023-11-19T00:29:02;9.00;96.19
25945;SHT31;13742;49.306;8.636;2023-11-19T00:30:06;9.00;96.00
25945;SHT31;13742;49.306;8.636;2023-11-19T00:31:03;9.00;96.34
25945;SHT31;13742;49.306;8.636;2023-11-19T00:32:02;9.02;96.30
25945;SHT31;13742;49.306;8.636;2023-11-19T00:33:02;8.99;96.14
25945;SHT31;13742;49.306;8.636;2023-11-19T00:34:02;9.02;96.13
25945;SHT31;13742;49.306;8.636;2023-11-19T00:35:03;9.04;96.34
25945;SHT31;13742;49.306;8.636;2023-11-19T00:36:03;9.03;96.31
25945;SHT31;13742;49.306;8.636;2023-11-19T00:37:03;9.02;96.24
25945;SHT31;13742;49.306;8.636;2023-11-19T00:38:03;9.04;96.55
25945;SHT31;13742;49.306;8.636;2023-11-19T00:39:02;9.07;96.40
25945;SHT31;13742;49.306;8.636;2023-11-19T00:40:06;9.06;96.20
25945;SHT31;13742;49.306;8.636;2023-11-19T00:41:02;9.07;96.33
25945;SHT31;13742;49.306;8.636;2023-11-19T00:42:02;9.06;96.35
25945;SHT31;13742;49.306;8.636;2023-11-19T00:43:02;9.03;96.25
25945;SHT31;13742;49.306;8.636;2023-11-19T00:44:02;9.04;96.19
25945;SHT31;13742;49.306;8.636;2023-11-19T00:45:02;9.07;96.07
25945;SHT31;13742;49.306;8.636;2023-11-19T00:46:07;9.07;96.63
25945;SHT31;13742;49.306;8.636;2023-11-19T00:47:02;9.06;96.56
25945;SHT31;13742;49.306;8.636;2023-11-19T00:48:02;9.04;96.37
25945;SHT31;13742;49.306;8.636;2023-11-19T00:49:02;9.04;96.39
25945;SHT31;13742;49.306;8.636;2023-11-19T00:50:02;9.04;96.27
25945;SHT31;13742;49.306;8.636;2023-11-19T00:51:03;9.06;96.16
25945;SHT31;13742;49.306;8.636;2023-11-19T00:52:02;9.09;96.46
25945;SHT31;13742;49.306;8.636;2023-11-19T00:53:03;9.06;96.28
25945;SHT31;13742;49.306;8.636;2023-11-19T00:54:02;9.09;96.38
25945;SHT31;13742;49.306;8.636;2023-11-19T00:55:02;9.07;96.24
25945;SHT31;13742;49.306;8.636;2023-11-19T00:56:02;9.09;96.21
25945;SHT31;13742;49.306;8.636;2023-11-19T00:57:02;9.09;96.40
25945;SHT31;13742;49.306;8.636;2023-11-19T00:58:03;9.09;96.24
25945;SHT31;13742;49.306;8.636;2023-11-19T00:59:02;9.07;96.15
25945;SHT31;13742;49.306;8.636;2023-11-19T01:00:07;9.07;96.16
25945;SHT31;13742;49.306;8.636;2023-11-19T01:01:02;9.10;96.40
25945;SHT31;13742;49.306;8.636;2023-11-19T01:02:04;9.12;96.64
25945;SHT31;13742;49.306;8.636;2023-11-19T01:03:02;9.12;96.37
25945;SHT31;13742;49.306;8.636;2023-11-19T01:04:02;9.10;96.31
25945;SHT31;13742;49.306;8.636;2023-11-19T01:05:02;9.13;96.48
25945;SHT31;13742;49.306;8.636;2023-11-19T01:06:03;9.12;96.46
25945;SHT31;13742;49.306;8.636;2023-11-19T01:07:04;9.17;97.09
25945;SHT31;13742;49.306;8.636;2023-11-19T01:08:04;9.14;96.70
25945;SHT31;13742;49.306;8.636;2023-11-19T01:09:02;9.13;96.59
25945;SHT31;13742;49.306;8.636;2023-11-19T01:10:03;9.14;96.53
25945;SHT31;13742;49.306;8.636;2023-11-19T01:11:02;9.19;97.05
25945;SHT31;13742;49.306;8.636;2023-11-19T01:12:02;9.17;97.02
25945;SHT31;13742;49.306;8.636;2023-11-19T01:13:04;9.20;97.01
25945;SHT31;13742;49.306;8.636;2023-11-19T01:14:02;9.17;96.80
25945;SHT31;13742;49.306;8.636;2023-11-19T01:15:02;9.17;96.67
25945;SHT31;13742;49.306;8.636;2023-11-19T01:16:02;9.24;96.97
25945;SHT31;13742;49.306;8.636;2023-11-19T01:17:02;9.19;96.76
25945;SHT31;13742;49.306;8.636;2023-11-19T01:18:05;9.17;96.62
25945;SHT31;13742;49.306;8.636;2023-11-19T01:19:04;9.17;96.55
25945;SHT31;13742;49.306;8.636;2023-11-19T01:20:02;9.20;96.57
25945;SHT31;13742;49.306;8.636;2023-11-19T01:21:02;9.22;97.05
25945;SHT31;13742;49.306;8.636;2023-11-19T01:22:02;9.22;96.89
25945;SHT31;13742;49.306;8.636;2023-11-19T01:23:02;9.20;96.77
25945;SHT31;13742;49.306;8.636;2023-11-19T01:24:04;9.19;96.60
25945;SHT31;13742;49.306;8.636;2023-11-19T01:25:03;9.20;96.64
25945;SHT31;13742;49.306;8.636;2023-11-19T01:26:02;9.20;96.73
25945;SHT31;13742;49.306;8.636;2023-11-19T01:27:02;9.23;97.29
25945;SHT31;13742;49.306;8.636;2023-11-19T01:28:03;9.23;97.18
25945;SHT31;13742;49.306;8.636;2023-11-19T01:29:02;9.22;97.07
25945;SHT31;13742;49.306;8.636;2023-11-19T01:30:06;9.23;97.14
25945;SHT31;13742;49.306;8.636;2023-11-19T01:31:02;9.22;96.92
25945;SHT31;13742;49.306;8.636;2023-11-19T01:32:02;9.23;96.92
25945;SHT31;13742;49.306;8.636;2023-11-19T01:33:02;9.23;96.91
25945;SHT31;13742;49.306;8.636;2023-11-19T01:34:02;9.23;96.91
25945;SHT31;13742;49.306;8.636;2023-11-19T01:35:03;9.23;96.85
25945;SHT31;13742;49.306;8.636;2023-11-19T01:36:02;9.22;96.79
25945;SHT31;13742;49.306;8.636;2023-11-19T01:37:02;9.23;96.92
25945;SHT31;13742;49.306;8.636;2023-11-19T01:38:02;9.24;96.91
25945;SHT31;13742;49.306;8.636;2023-11-19T01:39:04;9.27;97.18
25945;SHT31;13742;49.306;8.636;2023-11-19T01:40:04;9.29;97.16
25945;SHT31;13742;49.306;8.636;2023-11-19T01:41:03;9.27;97.16
25945;SHT31;13742;49.306;8.636;2023-11-19T01:42:02;9.26;97.03
25945;SHT31;13742;49.306;8.636;2023-11-19T01:43:03;9.27;97.12
25945;SHT31;13742;49.306;8.636;2023-11-19T01:44:02;9.27;97.29
25945;SHT31;13742;49.306;8.636;2023-11-19T01:45:02;9.31;97.15
25945;SHT31;13742;49.306;8.636;2023-11-19T01:46:05;9.29;97.32
25945;SHT31;13742;49.306;8.636;2023-11-19T01:47:02;9.31;97.34
25945;SHT31;13742;49.306;8.636;2023-11-19T01:48:02;9.29;97.16
25945;SHT31;13742;49.306;8.636;2023-11-19T01:49:02;9.31;97.16
25945;SHT31;13742;49.306;8.636;2023-11-19T01:50:03;9.27;97.06
25945;SHT31;13742;49.306;8.636;2023-11-19T01:51:03;9.30;96.98
25945;SHT31;13742;49.306;8.636;2023-11-19T01:52:02;9.30;96.94
25945;SHT31;13742;49.306;8.636;2023-11-19T01:53:02;9.31;97.07
25945;SHT31;13742;49.306;8.636;2023-11-19T01:54:02;9.34;97.53
25945;SHT31;13742;49.306;8.636;2023-11-19T01:55:03;9.31;97.27
25945;SHT31;13742;49.306;8.636;2023-11-19T01:56:03;9.35;97.59
25945;SHT31;13742;49.306;8.636;2023-11-19T01:57:02;9.33;97.38
25945;SHT31;13742;49.306;8.636;2023-11-19T01:58:02;9.34;97.38
25945;SHT31;13742;49.306;8.636;2023-11-19T01:59:03;9.35;97.34
25945;SHT31;13742;49.306;8.636;2023-11-19T02:00:03;9.31;97.22
25945;SHT31;13742;49.306;8.636;2023-11-19T02:01:05;9.34;97.22
25945;SHT31;13742;49.306;8.636;2023-11-19T02:02:02;9.33;97.35
25945;SHT31;13742;49.306;8.636;2023-11-19T02:03:05;9.33;97.15
25945;SHT31;13742;49.306;8.636;2023-11-19T02:04:02;9.35;97.19
25945;SHT31;13742;49.306;8.636;2023-11-19T02:05:02;9.34;97.35
25945;SHT31;13742;49.306;8.636;2023-11-19T02:06:02;9.37;97.47
25945;SHT31;13742;49.306;8.636;2023-11-19T02:07:02;9.37;97.36
25945;SHT31;13742;49.306;8.636;2023-11-19T02:08:02;9.35;97.22
25945;SHT31;13742;49.306;8.636;2023-11-19T02:09:07;9.38;97.55
25945;SHT31;13742;49.306;8.636;2023-11-19T02:10:02;9.38;97.62
25945;SHT31;13742;49.306;8.636;2023-11-19T02:11:02;9.37;97.33
25945;SHT31;13742;49.306;8.636;2023-11-19T02:12:02;9.40;97.34
25945;SHT31;13742;49.306;8.636;2023-11-19T02:13:02;9.37;97.26
25945;SHT31;13742;49.306;8.636;2023-11-19T02:14:04;9.35;97.25
25945;SHT31;13742;49.306;8.636;2023-11-19T02:15:03;9.35;97.19
25945;SHT31;13742;49.306;8.636;2023-11-19T02:16:02;9.35;97.13
25945;SHT31;13742;49.306;8.636;2023-11-19T02:17:02;9.37;97.41
25945;SHT31;13742;49.306;8.636;2023-11-19T02:19:02;9.38;97.30
25945;SHT31;13742;49.306;8.636;2023-11-19T02:20:06;9.38;97.42
25945;SHT31;13742;49.306;8.636;2023-11-19T02:21:02;9.43;97.34
25945;SHT31;13742;49.306;8.636;2023-11-19T02:22:02;9.43;97.36
25945;SHT31;13742;49.306;8.636;2023-11-19T02:23:02;9.43;97.29
25945;SHT31;13742;49.306;8.636;2023-11-19T02:24:06;9.44;97.56
25945;SHT31;13742;49.306;8.636;2023-11-19T02:25:05;9.41;97.44
25945;SHT31;13742;49.306;8.636;2023-11-19T02:27:08;9.43;97.39
25945;SHT31;13742;49.306;8.636;2023-11-19T02:28:03;9.45;97.54
25945;SHT31;13742;49.306;8.636;2023-11-19T02:29:03;9.45;97.62
25945;SHT31;13742;49.306;8.636;2023-11-19T02:30:04;9.45;97.44
25945;SHT31;13742;49.306;8.636;2023-11-19T02:31:02;9.47;97.40
25945;SHT31;13742;49.306;8.636;2023-11-19T02:32:02;9.47;97.70
25945;SHT31;13742;49.306;8.636;2023-11-19T02:33:05;9.47;97.45
25945;SHT31;13742;49.306;8.636;2023-11-19T02:34:02;9.47;97.33
25945;SHT31;13742;49.306;8.636;2023-11-19T02:35:02;9.45;97.39
25945;SHT31;13742;49.306;8.636;2023-11-19T02:36:04;9.48;97.57
25945;SHT31;13742;49.306;8.636;2023-11-19T02:37:02;9.48;97.53
25945;SHT31;13742;49.306;8.636;2023-11-19T02:38:03;9.45;97.54
25945;SHT31;13742;49.306;8.636;2023-11-19T02:39:02;9.48;97.60
25945;SHT31;13742;49.306;8.636;2023-11-19T02:40:04;9.48;97.51
25945;SHT31;13742;49.306;8.636;2023-11-19T02:41:06;9.47;97.46
25945;SHT31;13742;49.306;8.636;2023-11-19T02:42:02;9.45;97.45
25945;SHT31;13742;49.306;8.636;2023-11-19T02:43:02;9.51;97.71
25945;SHT31;13742;49.306;8.636;2023-11-19T02:44:02;9.51;97.71
25945;SHT31;13742;49.306;8.636;2023-11-19T02:45:02;9.51;97.61
25945;SHT31;13742;49.306;8.636;2023-11-19T02:46:02;9.57;97.89
25945;SHT31;13742;49.306;8.636;2023-11-19T02:47:05;9.57;97.79
25945;SHT31;13742;49.306;8.636;2023-11-19T02:48:02;9.55;97.82
25945;SHT31;13742;49.306;8.636;2023-11-19T02:49:02;9.59;97.94
25945;SHT31;13742;49.306;8.636;2023-11-19T02:50:02;9.59;97.91
25945;SHT31;13742;49.306;8.636;2023-11-19T02:51:04;9.62;98.05
25945;SHT31;13742;49.306;8.636;2023-11-19T02:52:02;9.64;98.00
25945;SHT31;13742;49.306;8.636;2023-11-19T02:53:02;9.65;97.94
25945;SHT31;13742;49.306;8.636;2023-11-19T02:54:03;9.65;98.01
25945;SHT31;13742;49.306;8.636;2023-11-19T02:55:02;9.65;97.91
25945;SHT31;13742;49.306;8.636;2023-11-19T02:56:09;9.66;97.95
25945;SHT31;13742;49.306;8.636;2023-11-19T02:57:04;9.68;97.95
25945;SHT31;13742;49.306;8.636;2023-11-19T02:58:05;9.69;98.02
25945;SHT31;13742;49.306;8.636;2023-11-19T02:59:13;9.65;97.86
25945;SHT31;13742;49.306;8.636;2023-11-19T03:00:16;9.71;97.88
25945;SHT31;13742;49.306;8.636;2023-11-19T03:01:12;9.74;98.05
25945;SHT31;13742;49.306;8.636;2023-11-19T03:02:02;9.72;97.94
25945;SHT31;13742;49.306;8.636;2023-11-19T03:03:06;9.78;98.21
25945;SHT31;13742;49.306;8.636;2023-11-19T03:04:02;9.78;98.12
25945;SHT31;13742;49.306;8.636;2023-11-19T03:05:03;9.74;97.92
25945;SHT31;13742;49.306;8.636;2023-11-19T03:06:05;9.76;97.94
25945;SHT31;13742;49.306;8.636;2023-11-19T03:07:02;9.76;98.02
25945;SHT31;13742;49.306;8.636;2023-11-19T03:08:03;9.75;97.93
25945;SHT31;13742;49.306;8.636;2023-11-19T03:09:06;9.74;98.00
25945;SHT31;13742;49.306;8.636;2023-11-19T03:10:02;9.82;98.16
25945;SHT31;13742;49.306;8.636;2023-11-19T03:11:02;9.80;98.08
25945;SHT31;13742;49.306;8.636;2023-11-19T03:12:02;9.81;98.19
25945;SHT31;13742;49.306;8.636;2023-11-19T03:13:03;9.82;98.19
25945;SHT31;13742;49.306;8.636;2023-11-19T03:14:03;9.81;98.11
25945;SHT31;13742;49.306;8.636;2023-11-19T03:15:02;9.81;98.01
25945;SHT31;13742;49.306;8.636;2023-11-19T03:16:02;9.84;98.15
25945;SHT31;13742;49.306;8.636;2023-11-19T03:17:02;9.86;98.20
25945;SHT31;13742;49.306;8.636;2023-11-19T03:18:02;9.84;98.20
25945;SHT31;13742;49.306;8.636;2023-11-19T03:19:02;9.85;98.11
25945;SHT31;13742;49.306;8.636;2023-11-19T03:20:03;9.84;98.08
25945;SHT31;13742;49.306;8.636;2023-11-19T03:21:03;9.85;98.10
25945;SHT31;13742;49.306;8.636;2023-11-19T03:22:02;9.86;98.07
25945;SHT31;13742;49.306;8.636;2023-11-19T03:23:01;9.88;98.10
25945;SHT31;13742;49.306;8.636;2023-11-19T03:24:02;9.89;98.23
25945;SHT31;13742;49.306;8.636;2023-11-19T03:25:02;9.89;98.16
25945;SHT31;13742;49.306;8.636;2023-11-19T03:26:04;9.92;98.20
25945;SHT31;13742;49.306;8.636;2023-11-19T03:27:02;9.93;98.25
25945;SHT31;13742;49.306;8.636;2023-11-19T03:28:03;9.92;98.25
25945;SHT31;13742;49.306;8.636;2023-11-19T03:29:02;9.92;98.20
25945;SHT31;13742;49.306;8.636;2023-11-19T03:30:02;9.93;98.29
25945;SHT31;13742;49.306;8.636;2023-11-19T03:31:04;9.98;98.31
25945;SHT31;13742;49.306;8.636;2023-11-19T03:32:02;9.98;98.29
25945;SHT31;13742;49.306;8.636;2023-11-19T03:33:02;9.95;98.28
25945;SHT31;13742;49.306;8.636;2023-11-19T03:34:03;9.98;98.32
25945;SHT31;13742;49.306;8.636;2023-11-19T03:35:02;9.98;98.31
25945;SHT31;13742;49.306;8.636;2023-11-19T03:36:02;9.99;98.28
25945;SHT31;13742;49.306;8.636;2023-11-19T03:37:03;10.02;98.30
25945;SHT31;13742;49.306;8.636;2023-11-19T03:38:01;10.03;98.29
25945;SHT31;13742;49.306;8.636;2023-11-19T03:39:03;9.98;98.24
25945;SHT31;13742;49.306;8.636;2023-11-19T03:40:02;10.03;98.31
25945;SHT31;13742;49.306;8.636;2023-11-19T03:41:10;10.05;98.34
25945;SHT31;13742;49.306;8.636;2023-11-19T03:42:03;10.03;98.36
25945;SHT31;13742;49.306;8.636;2023-11-19T03:43:04;10.05;98.32
25945;SHT31;13742;49.306;8.636;2023-11-19T03:44:01;10.05;98.38
25945;SHT31;13742;49.306;8.636;2023-11-19T03:45:04;10.05;98.35
25945;SHT31;13742;49.306;8.636;2023-11-19T03:46:02;10.08;98.43
25945;SHT31;13742;49.306;8.636;2023-11-19T03:47:02;10.10;98.46
25945;SHT31;13742;49.306;8.636;2023-11-19T03:48:01;10.08;98.35
25945;SHT31;13742;49.306;8.636;2023-11-19T03:49:02;10.09;98.35
25945;SHT31;13742;49.306;8.636;2023-11-19T03:50:03;10.10;98.35
25945;SHT31;13742;49.306;8.636;2023-11-19T03:51:02;10.09;98.38
25945;SHT31;13742;49.306;8.636;2023-11-19T03:52:02;10.09;98.40
25945;SHT31;13742;49.306;8.636;2023-11-19T03:53:03;10.09;98.30
25945;SHT31;13742;49.306;8.636;2023-11-19T03:54:02;10.14;98.50
25945;SHT31;13742;49.306;8.636;2023-11-19T03:55:03;10.13;98.46
25945;SHT31;13742;49.306;8.636;2023-11-19T03:56:01;10.13;98.47
25945;SHT31;13742;49.306;8.636;2023-11-19T03:57:03;10.16;98.51
25945;SHT31;13742;49.306;8.636;2023-11-19T03:58:01;10.16;98.45
25945;SHT31;13742;49.306;8.636;2023-11-19T03:59:02;10.13;98.40
25945;SHT31;13742;49.306;8.636;2023-11-19T04:00:08;10.14;98.37
25945;SHT31;13742;49.306;8.636;2023-11-19T04:01:02;10.16;98.39
25945;SHT31;13742;49.306;8.636;2023-11-19T04:02:02;10.17;98.48
25945;SHT31;13742;49.306;8.636;2023-11-19T04:03:02;10.17;98.52
25945;SHT31;13742;49.306;8.636;2023-11-19T04:04:02;10.23;98.56
25945;SHT31;13742;49.306;8.636;2023-11-19T04:05:02;10.19;98.47
25945;SHT31;13742;49.306;8.636;2023-11-19T04:06:02;10.17;98.43
25945;SHT31;13742;49.306;8.636;2023-11-19T04:07:03;10.20;98.42
25945;SHT31;13742;49.306;8.636;2023-11-19T04:08:01;10.22;98.50
25945;SHT31;13742;49.306;8.636;2023-11-19T04:09:01;10.23;98.57
25945;SHT31;13742;49.306;8.636;2023-11-19T04:10:02;10.29;98.69
25945;SHT31;13742;49.306;8.636;2023-11-19T04:11:04;10.26;98.57
25945;SHT31;13742;49.306;8.636;2023-11-19T04:12:02;10.29;98.59
25945;SHT31;13742;49.306;8.636;2023-11-19T04:13:02;10.30;98.59
25945;SHT31;13742;49.306;8.636;2023-11-19T04:14:01;10.29;98.49
25945;SHT31;13742;49.306;8.636;2023-11-19T04:15:02;10.27;98.46
25945;SHT31;13742;49.306;8.636;2023-11-19T04:16:02;10.27;98.42
25945;SHT31;13742;49.306;8.636;2023-11-19T04:17:02;10.27;98.45
25945;SHT31;13742;49.306;8.636;2023-11-19T04:18:01;10.34;98.64
25945;SHT31;13742;49.306;8.636;2023-11-19T04:19:01;10.36;98.69
25945;SHT31;13742;49.306;8.636;2023-11-19T04:20:05;10.37;98.74
25945;SHT31;13742;49.306;8.636;2023-11-19T04:21:02;10.37;98.69
25945;SHT31;13742;49.306;8.636;2023-11-19T04:22:02;10.37;98.62
25945;SHT31;13742;49.306;8.636;2023-11-19T04:23:01;10.36;98.57
25945;SHT31;13742;49.306;8.636;2023-11-19T04:24:02;10.36;98.51
25945;SHT31;13742;49.306;8.636;2023-11-19T04:25:02;10.40;98.63
25945;SHT31;13742;49.306;8.636;2023-11-19T04:26:02;10.39;98.57
25945;SHT31;13742;49.306;8.636;2023-11-19T04:27:01;10.43;98.66
25945;SHT31;13742;49.306;8.636;2023-11-19T04:28:02;10.43;98.62
25945;SHT31;13742;49.306;8.636;2023-11-19T04:29:02;10.44;98.60
25945;SHT31;13742;49.306;8.636;2023-11-19T04:30:03;10.45;98.67
25945;SHT31;13742;49.306;8.636;2023-11-19T04:31:03;10.41;98.56
25945;SHT31;13742;49.306;8.636;2023-11-19T04:32:02;10.43;98.51
25945;SHT31;13742;49.306;8.636;2023-11-19T04:33:02;10.43;98.52
25945;SHT31;13742;49.306;8.636;2023-11-19T04:34:01;10.41;98.48
25945;SHT31;13742;49.306;8.636;2023-11-19T04:35:01;10.43;98.52
25945;SHT31;13742;49.306;8.636;2023-11-19T04:36:03;10.44;98.61
25945;SHT31;13742;49.306;8.636;2023-11-19T04:37:02;10.44;98.52
25945;SHT31;13742;49.306;8.636;2023-11-19T04:38:01;10.50;98.62
25945;SHT31;13742;49.306;8.636;2023-11-19T04:39:02;10.48;98.59
25945;SHT31;13742;49.306;8.636;2023-11-19T04:40:02;10.50;98.58
25945;SHT31;13742;49.306;8.636;2023-11-19T04:41:02;10.48;98.54
25945;SHT31;13742;49.306;8.636;2023-11-19T04:42:02;10.45;98.48
25945;SHT31;13742;49.306;8.636;2023-11-19T04:43:01;10.50;98.53
25945;SHT31;13742;49.306;8.636;2023-11-19T04:44:02;10.48;98.47
25945;SHT31;13742;49.306;8.636;2023-11-19T04:45:02;10.50;98.45
25945;SHT31;13742;49.306;8.636;2023-11-19T04:46:03;10.47;98.43
25945;SHT31;13742;49.306;8.636;2023-11-19T04:47:01;10.50;98.46
25945;SHT31;13742;49.306;8.636;2023-11-19T04:48:01;10.47;98.42
25945;SHT31;13742;49.306;8.636;2023-11-19T04:49:01;10.50;98.43
25945;SHT31;13742;49.306;8.636;2023-11-19T04:50:02;10.51;98.55
25945;SHT31;13742;49.306;8.636;2023-11-19T04:51:04;10.51;98.48
25945;SHT31;13742;49.306;8.636;2023-11-19T04:52:03;10.51;98.52
25945;SHT31;13742;49.306;8.636;2023-11-19T04:53:03;10.48;98.48
25945;SHT31;13742;49.306;8.636;2023-11-19T04:54:01;10.53;98.60
25945;SHT31;13742;49.306;8.636;2023-11-19T04:55:02;10.51;98.57
25945;SHT31;13742;49.306;8.636;2023-11-19T04:56:07;10.54;98.58
25945;SHT31;13742;49.306;8.636;2023-11-19T04:57:01;10.57;98.64
25945;SHT31;13742;49.306;8.636;2023-11-19T04:58:01;10.59;98.66
25945;SHT31;13742;49.306;8.636;2023-11-19T04:59:02;10.57;98.50
25945;SHT31;13742;49.306;8.636;2023-11-19T05:00:04;10.59;98.61
25945;SHT31;13742;49.306;8.636;2023-11-19T05:01:01;10.57;98.58
25945;SHT31;13742;49.306;8.636;2023-11-19T05:02:01;10.56;98.54
25945;SHT31;13742;49.306;8.636;2023-11-19T05:03:02;10.57;98.56
25945;SHT31;13742;49.306;8.636;2023-11-19T05:04:02;10.57;98.57
25945;SHT31;13742;49.306;8.636;2023-11-19T05:05:03;10.65;98.68
25945;SHT31;13742;49.306;8.636;2023-11-19T05:06:01;10.61;98.63
25945;SHT31;13742;49.306;8.636;2023-11-19T05:07:01;10.64;98.62
25945;SHT31;13742;49.306;8.636;2023-11-19T05:08:01;10.64;98.62
25945;SHT31;13742;49.306;8.636;2023-11-19T05:09:03;10.63;98.53
25945;SHT31;13742;49.306;8.636;2023-11-19T05:10:04;10.61;98.43
25945;SHT31;13742;49.306;8.636;2023-11-19T05:11:01;10.60;98.46
25945;SHT31;13742;49.306;8.636;2023-11-19T05:12:02;10.60;98.44
25945;SHT31;13742;49.306;8.636;2023-11-19T05:13:01;10.60;98.44
25945;SHT31;13742;49.306;8.636;2023-11-19T05:14:04;10.60;98.41
25945;SHT31;13742;49.306;8.636;2023-11-19T05:15:02;10.65;98.57
25945;SHT31;13742;49.306;8.636;2023-11-19T05:16:01;10.65;98.64
25945;SHT31;13742;49.306;8.636;2023-11-19T05:17:01;10.67;98.61
25945;SHT31;13742;49.306;8.636;2023-11-19T05:18:01;10.68;98.54
25945;SHT31;13742;49.306;8.636;2023-11-19T05:19:01;10.72;98.62
25945;SHT31;13742;49.306;8.636;2023-11-19T05:20:02;10.68;98.57
25945;SHT31;13742;49.306;8.636;2023-11-19T05:21:01;10.72;98.55
25945;SHT31;13742;49.306;8.636;2023-11-19T05:22:01;10.68;98.45
25945;SHT31;13742;49.306;8.636;2023-11-19T05:23:01;10.68;98.35
25945;SHT31;13742;49.306;8.636;2023-11-19T05:24:04;10.67;98.33
25945;SHT31;13742;49.306;8.636;2023-11-19T05:25:02;10.70;98.38
25945;SHT31;13742;49.306;8.636;2023-11-19T05:26:02;10.70;98.36
25945;SHT31;13742;49.306;8.636;2023-11-19T05:27:02;10.70;98.46
25945;SHT31;13742;49.306;8.636;2023-11-19T05:28:01;10.71;98.42
25945;SHT31;13742;49.306;8.636;2023-11-19T05:29:01;10.70;98.46
25945;SHT31;13742;49.306;8.636;2023-11-19T05:30:02;10.71;98.42
25945;SHT31;13742;49.306;8.636;2023-11-19T05:31:01;10.68;98.33
25945;SHT31;13742;49.306;8.636;2023-11-19T05:32:01;10.71;98.39
25945;SHT31;13742;49.306;8.636;2023-11-19T05:33:01;10.75;98.45
25945;SHT31;13742;49.306;8.636;2023-11-19T05:34:01;10.68;98.39
25945;SHT31;13742;49.306;8.636;2023-11-19T05:35:02;10.74;98.40
25945;SHT31;13742;49.306;8.636;2023-11-19T05:36:04;10.74;98.46
25945;SHT31;13742;49.306;8.636;2023-11-19T05:37:01;10.77;98.58
25945;SHT31;13742;49.306;8.636;2023-11-19T05:38:02;10.77;98.48
25945;SHT31;13742;49.306;8.636;2023-11-19T05:39:03;10.78;98.50
25945;SHT31;13742;49.306;8.636;2023-11-19T05:40:05;10.78;98.42
25945;SHT31;13742;49.306;8.636;2023-11-19T05:41:01;10.77;98.38
25945;SHT31;13742;49.306;8.636;2023-11-19T05:42:01;10.77;98.44
25945;SHT31;13742;49.306;8.636;2023-11-19T05:43:02;10.84;98.45
25945;SHT31;13742;49.306;8.636;2023-11-19T05:44:01;10.82;98.52
25945;SHT31;13742;49.306;8.636;2023-11-19T05:45:01;10.80;98.42
25945;SHT31;13742;49.306;8.636;2023-11-19T05:46:02;10.85;98.49
25945;SHT31;13742;49.306;8.636;2023-11-19T05:47:02;10.84;98.48
25945;SHT31;13742;49.306;8.636;2023-11-19T05:48:04;10.88;98.39
25945;SHT31;13742;49.306;8.636;2023-11-19T05:49:01;10.82;98.24
25945;SHT31;13742;49.306;8.636;2023-11-19T05:50:01;10.87;98.32
25945;SHT31;13742;49.306;8.636;2023-11-19T05:51:02;10.85;98.25
25945;SHT31;13742;49.306;8.636;2023-11-19T05:52:03;10.87;98.28
25945;SHT31;13742;49.306;8.636;2023-11-19T05:53:01;10.90;98.30
25945;SHT31;13742;49.306;8.636;2023-11-19T05:54:02;10.87;98.22
25945;SHT31;13742;49.306;8.636;2023-11-19T05:55:06;10.87;98.15
25945;SHT31;13742;49.306;8.636;2023-11-19T05:56:04;10.88;98.30
25945;SHT31;13742;49.306;8.636;2023-11-19T05:57:02;10.91;98.25
25945;SHT31;13742;49.306;8.636;2023-11-19T05:58:02;10.91;98.25
25945;SHT31;13742;49.306;8.636;2023-11-19T05:59:03;10.94;98.20
25945;SHT31;13742;49.306;8.636;2023-11-19T06:00:03;10.96;98.27
25945;SHT31;13742;49.306;8.636;2023-11-19T06:01:02;10.98;98.32
25945;SHT31;13742;49.306;8.636;2023-11-19T06:02:02;10.98;98.16
25945;SHT31;13742;49.306;8.636;2023-11-19T06:03:01;10.98;98.06
25945;SHT31;13742;49.306;8.636;2023-11-19T06:04:01;10.96;98.03
25945;SHT31;13742;49.306;8.636;2023-11-19T06:05:01;10.95;98.04
25945;SHT31;13742;49.306;8.636;2023-11-19T06:06:01;10.96;98.03
25945;SHT31;13742;49.306;8.636;2023-11-19T06:07:01;10.99;98.10
25945;SHT31;13742;49.306;8.636;2023-11-19T06:08:01;11.01;98.15
25945;SHT31;13742;49.306;8.636;2023-11-19T06:09:03;11.02;98.10
25945;SHT31;13742;49.306;8.636;2023-11-19T06:10:03;11.03;98.03
25945;SHT31;13742;49.306;8.636;2023-11-19T06:11:01;11.06;98.02
25945;SHT31;13742;49.306;8.636;2023-11-19T06:12:06;11.06;98.04
25945;SHT31;13742;49.306;8.636;2023-11-19T06:13:05;11.06;98.00
25945;SHT31;13742;49.306;8.636;2023-11-19T06:14:02;11.06;97.91
25945;SHT31;13742;49.306;8.636;2023-11-19T06:15:02;11.05;97.87
25945;SHT31;13742;49.306;8.636;2023-11-19T06:16:03;11.13;97.98
25945;SHT31;13742;49.306;8.636;2023-11-19T06:17:02;11.13;97.94
25945;SHT31;13742;49.306;8.636;2023-11-19T06:18:03;11.15;97.80
25945;SHT31;13742;49.306;8.636;2023-11-19T06:19:01;11.18;97.87
25945;SHT31;13742;49.306;8.636;2023-11-19T06:20:05;11.18;97.87
25945;SHT31;13742;49.306;8.636;2023-11-19T06:21:01;11.19;97.76
25945;SHT31;13742;49.306;8.636;2023-11-19T06:22:01;11.18;97.77
25945;SHT31;13742;49.306;8.636;2023-11-19T06:23:01;11.21;97.68
25945;SHT31;13742;49.306;8.636;2023-11-19T06:24:02;11.21;97.59